Paso Robles Municipal Airport
KPRB : now visible

Airfield :











YOU CAN JOIN US ON...

 
LOGIN :

Register | Disclaimer

   EN    FR    IT 

 









Legend :    VFR   Marginal VFR   IFR   Intensive IFR   Very Intensive IFR
Visi :
Ceiling :
>= 8 km
>= 3000ft
5 to 8 km
1000 to 3000 ft
1500m to 5 km
500 to 1000 ft
800 to 1500m
200 to 500 ft
< 800m
< 200 ft
Symbols :   Thunderstorms  Fog  Heavy snow  Heavy precipitations  Wind > 20 kt






- Airport Elevation : 840 ft


KPRB - Paso Robles Municipal

CURRENT METAR :
  • 180353Z AUTO 14003KT 10SM CLR 12/M04 A3001 RMK AO2 SLP164 T01221039

EXPIRED METARs :
  • 180253Z AUTO 00000KT 10SM CLR 13/M03 A3000 RMK AO2 SLP158 T01331028 53006
  • 180153Z AUTO 00000KT 10SM CLR 18/02 A2998 RMK AO2 SLP150 T01830022

TAF KPRB
Valid from the 18 at 00:00 until the 19 at 00:00 UTC


172353Z 1800/1824 34005KT P6SM SCT250
FM180100 08008KT P6SM BKN250
FM180500 VRB03KT P6SM BKN250
FM182100 11006KT P6SM SCT250



MET'MAP, your aeronautical weather chart ! - Copyright ORBIFLY December 2007 - Disclaimer

ORBIFLY MET'MAP TEAM :

Programming & Development : Alexandra Zaïnal
Concept & original design : Baudouin d'Aumeries
Assistance for programming : Marc-Olivier Méhu
Technical & hardware support : Manuel Goepfert

Contact : metmap@orbifly.com




SOURCES & CREDITS :

   NOAA       Earth
Advisory